sensor_id;sensor_type;location;lat;lon;timestamp;P1;durP1;ratioP1;P2;durP2;ratioP2
15936;SDS011;9163;48.818;8.976;2022-12-07T00:01:52;12.80;;;9.80;;
15936;SDS011;9163;48.818;8.976;2022-12-07T00:04:19;12.03;;;9.17;;
15936;SDS011;9163;48.818;8.976;2022-12-07T00:06:50;12.67;;;9.23;;
15936;SDS011;9163;48.818;8.976;2022-12-07T00:09:18;11.20;;;9.23;;
15936;SDS011;9163;48.818;8.976;2022-12-07T00:11:48;13.00;;;9.50;;
15936;SDS011;9163;48.818;8.976;2022-12-07T00:14:17;12.13;;;9.50;;
15936;SDS011;9163;48.818;8.976;2022-12-07T00:16:44;14.10;;;10.17;;
15936;SDS011;9163;48.818;8.976;2022-12-07T00:19:12;12.80;;;9.60;;
15936;SDS011;9163;48.818;8.976;2022-12-07T00:21:40;14.43;;;9.77;;
15936;SDS011;9163;48.818;8.976;2022-12-07T00:24:10;14.37;;;10.23;;
15936;SDS011;9163;48.818;8.976;2022-12-07T00:26:38;14.37;;;10.07;;
15936;SDS011;9163;48.818;8.976;2022-12-07T00:29:08;14.00;;;10.00;;
15936;SDS011;9163;48.818;8.976;2022-12-07T00:31:39;13.57;;;10.13;;
15936;SDS011;9163;48.818;8.976;2022-12-07T00:34:07;14.73;;;10.20;;
15936;SDS011;9163;48.818;8.976;2022-12-07T00:36:38;14.40;;;10.23;;
15936;SDS011;9163;48.818;8.976;2022-12-07T00:39:05;14.97;;;10.40;;
15936;SDS011;9163;48.818;8.976;2022-12-07T00:41:34;13.73;;;9.67;;
15936;SDS011;9163;48.818;8.976;2022-12-07T00:44:01;14.20;;;10.70;;
15936;SDS011;9163;48.818;8.976;2022-12-07T00:46:29;13.63;;;9.87;;
15936;SDS011;9163;48.818;8.976;2022-12-07T00:48:57;13.50;;;10.20;;
15936;SDS011;9163;48.818;8.976;2022-12-07T00:51:24;13.70;;;10.03;;
15936;SDS011;9163;48.818;8.976;2022-12-07T00:53:52;16.10;;;10.77;;
15936;SDS011;9163;48.818;8.976;2022-12-07T00:56:21;15.93;;;11.13;;
15936;SDS011;9163;48.818;8.976;2022-12-07T00:58:51;16.03;;;11.37;;
15936;SDS011;9163;48.818;8.976;2022-12-07T01:01:21;17.20;;;11.20;;
15936;SDS011;9163;48.818;8.976;2022-12-07T01:03:49;15.50;;;11.03;;
15936;SDS011;9163;48.818;8.976;2022-12-07T01:06:17;13.87;;;10.47;;
15936;SDS011;9163;48.818;8.976;2022-12-07T01:08:45;17.57;;;11.87;;
15936;SDS011;9163;48.818;8.976;2022-12-07T01:11:14;15.53;;;11.50;;
15936;SDS011;9163;48.818;8.976;2022-12-07T01:13:43;15.03;;;11.60;;
15936;SDS011;9163;48.818;8.976;2022-12-07T01:16:13;17.83;;;12.43;;
15936;SDS011;9163;48.818;8.976;2022-12-07T01:18:42;17.27;;;11.47;;
15936;SDS011;9163;48.818;8.976;2022-12-07T01:21:13;18.37;;;11.83;;
15936;SDS011;9163;48.818;8.976;2022-12-07T01:23:42;16.53;;;11.10;;
15936;SDS011;9163;48.818;8.976;2022-12-07T01:26:10;17.97;;;11.93;;
15936;SDS011;9163;48.818;8.976;2022-12-07T01:28:38;17.80;;;11.37;;
15936;SDS011;9163;48.818;8.976;2022-12-07T01:31:06;16.23;;;11.37;;
15936;SDS011;9163;48.818;8.976;2022-12-07T01:33:39;16.63;;;10.83;;
15936;SDS011;9163;48.818;8.976;2022-12-07T01:36:08;16.17;;;11.23;;
15936;SDS011;9163;48.818;8.976;2022-12-07T01:38:42;16.17;;;11.37;;
15936;SDS011;9163;48.818;8.976;2022-12-07T01:41:10;17.00;;;11.47;;
15936;SDS011;9163;48.818;8.976;2022-12-07T01:44:06;17.07;;;10.97;;
15936;SDS011;9163;48.818;8.976;2022-12-07T01:46:42;15.43;;;10.77;;
15936;SDS011;9163;48.818;8.976;2022-12-07T01:49:11;15.80;;;11.43;;
15936;SDS011;9163;48.818;8.976;2022-12-07T01:51:43;17.47;;;11.10;;
15936;SDS011;9163;48.818;8.976;2022-12-07T01:54:11;17.53;;;11.53;;
15936;SDS011;9163;48.818;8.976;2022-12-07T01:56:41;15.13;;;11.17;;
15936;SDS011;9163;48.818;8.976;2022-12-07T01:59:21;14.87;;;10.77;;
15936;SDS011;9163;48.818;8.976;2022-12-07T02:01:51;14.03;;;10.57;;
15936;SDS011;9163;48.818;8.976;2022-12-07T02:04:19;16.73;;;11.80;;
15936;SDS011;9163;48.818;8.976;2022-12-07T02:06:48;15.93;;;10.63;;
15936;SDS011;9163;48.818;8.976;2022-12-07T02:09:17;15.53;;;10.17;;
15936;SDS011;9163;48.818;8.976;2022-12-07T02:11:45;14.90;;;10.10;;
15936;SDS011;9163;48.818;8.976;2022-12-07T02:14:12;15.73;;;10.93;;
15936;SDS011;9163;48.818;8.976;2022-12-07T02:16:45;15.83;;;11.10;;
15936;SDS011;9163;48.818;8.976;2022-12-07T02:19:37;15.67;;;11.10;;
15936;SDS011;9163;48.818;8.976;2022-12-07T02:22:40;16.33;;;11.07;;
15936;SDS011;9163;48.818;8.976;2022-12-07T02:25:30;15.77;;;11.20;;
15936;SDS011;9163;48.818;8.976;2022-12-07T02:28:16;15.47;;;11.00;;
15936;SDS011;9163;48.818;8.976;2022-12-07T02:30:52;15.70;;;11.20;;
15936;SDS011;9163;48.818;8.976;2022-12-07T02:33:25;16.77;;;11.70;;
15936;SDS011;9163;48.818;8.976;2022-12-07T02:35:59;17.27;;;11.73;;
15936;SDS011;9163;48.818;8.976;2022-12-07T02:38:32;17.80;;;12.00;;
15936;SDS011;9163;48.818;8.976;2022-12-07T02:41:04;19.07;;;12.77;;
15936;SDS011;9163;48.818;8.976;2022-12-07T02:43:37;17.40;;;12.00;;
15936;SDS011;9163;48.818;8.976;2022-12-07T02:46:08;18.40;;;12.30;;
15936;SDS011;9163;48.818;8.976;2022-12-07T02:48:38;18.20;;;12.37;;
15936;SDS011;9163;48.818;8.976;2022-12-07T02:51:06;20.77;;;13.53;;
15936;SDS011;9163;48.818;8.976;2022-12-07T02:53:35;20.10;;;13.30;;
15936;SDS011;9163;48.818;8.976;2022-12-07T02:56:06;20.73;;;14.10;;
15936;SDS011;9163;48.818;8.976;2022-12-07T02:58:41;21.57;;;13.90;;
15936;SDS011;9163;48.818;8.976;2022-12-07T03:01:21;19.37;;;13.43;;
15936;SDS011;9163;48.818;8.976;2022-12-07T03:03:58;20.63;;;13.93;;
15936;SDS011;9163;48.818;8.976;2022-12-07T03:06:38;19.00;;;12.77;;
15936;SDS011;9163;48.818;8.976;2022-12-07T03:09:16;17.83;;;12.87;;
15936;SDS011;9163;48.818;8.976;2022-12-07T03:11:49;19.57;;;13.03;;
15936;SDS011;9163;48.818;8.976;2022-12-07T03:14:23;19.67;;;13.00;;
15936;SDS011;9163;48.818;8.976;2022-12-07T03:16:58;18.70;;;12.63;;
15936;SDS011;9163;48.818;8.976;2022-12-07T03:19:31;19.60;;;13.50;;
15936;SDS011;9163;48.818;8.976;2022-12-07T03:22:01;20.23;;;13.33;;
15936;SDS011;9163;48.818;8.976;2022-12-07T03:24:33;18.03;;;12.50;;
15936;SDS011;9163;48.818;8.976;2022-12-07T03:27:06;19.97;;;13.23;;
15936;SDS011;9163;48.818;8.976;2022-12-07T03:29:36;19.33;;;13.13;;
15936;SDS011;9163;48.818;8.976;2022-12-07T03:32:11;19.30;;;13.40;;
15936;SDS011;9163;48.818;8.976;2022-12-07T03:34:44;18.50;;;12.53;;
15936;SDS011;9163;48.818;8.976;2022-12-07T03:37:17;22.27;;;14.00;;
15936;SDS011;9163;48.818;8.976;2022-12-07T03:39:53;19.63;;;13.47;;
15936;SDS011;9163;48.818;8.976;2022-12-07T03:42:26;18.97;;;13.00;;
15936;SDS011;9163;48.818;8.976;2022-12-07T03:44:54;19.07;;;12.83;;
15936;SDS011;9163;48.818;8.976;2022-12-07T03:47:24;20.07;;;13.53;;
15936;SDS011;9163;48.818;8.976;2022-12-07T03:49:55;22.03;;;14.20;;
15936;SDS011;9163;48.818;8.976;2022-12-07T03:52:26;20.80;;;13.73;;
15936;SDS011;9163;48.818;8.976;2022-12-07T03:55:00;18.73;;;13.03;;
15936;SDS011;9163;48.818;8.976;2022-12-07T03:57:31;19.87;;;13.07;;
15936;SDS011;9163;48.818;8.976;2022-12-07T04:00:01;19.73;;;12.70;;
15936;SDS011;9163;48.818;8.976;2022-12-07T04:02:33;18.47;;;12.33;;
15936;SDS011;9163;48.818;8.976;2022-12-07T04:05:00;19.60;;;12.33;;
15936;SDS011;9163;48.818;8.976;2022-12-07T04:07:28;17.93;;;11.63;;
15936;SDS011;9163;48.818;8.976;2022-12-07T04:09:55;17.67;;;12.33;;
15936;SDS011;9163;48.818;8.976;2022-12-07T04:12:23;16.70;;;11.50;;
15936;SDS011;9163;48.818;8.976;2022-12-07T04:14:50;16.10;;;11.63;;
15936;SDS011;9163;48.818;8.976;2022-12-07T04:17:17;17.73;;;12.13;;
15936;SDS011;9163;48.818;8.976;2022-12-07T04:19:46;17.30;;;12.00;;
15936;SDS011;9163;48.818;8.976;2022-12-07T04:22:13;19.53;;;12.90;;
15936;SDS011;9163;48.818;8.976;2022-12-07T04:24:42;17.63;;;10.93;;
15936;SDS011;9163;48.818;8.976;2022-12-07T04:27:09;15.27;;;10.53;;
15936;SDS011;9163;48.818;8.976;2022-12-07T04:29:36;14.53;;;9.20;;
15936;SDS011;9163;48.818;8.976;2022-12-07T04:32:04;14.20;;;9.60;;
15936;SDS011;9163;48.818;8.976;2022-12-07T04:34:31;13.57;;;9.30;;
15936;SDS011;9163;48.818;8.976;2022-12-07T04:37:00;14.47;;;9.70;;
15936;SDS011;9163;48.818;8.976;2022-12-07T04:39:28;14.83;;;9.60;;
15936;SDS011;9163;48.818;8.976;2022-12-07T04:41:56;16.80;;;10.20;;
15936;SDS011;9163;48.818;8.976;2022-12-07T04:44:25;15.37;;;10.30;;
15936;SDS011;9163;48.818;8.976;2022-12-07T04:46:53;15.30;;;10.60;;
15936;SDS011;9163;48.818;8.976;2022-12-07T04:49:22;17.47;;;11.10;;
15936;SDS011;9163;48.818;8.976;2022-12-07T04:51:50;15.13;;;9.33;;
15936;SDS011;9163;48.818;8.976;2022-12-07T04:54:19;12.00;;;8.57;;
15936;SDS011;9163;48.818;8.976;2022-12-07T04:56:47;13.20;;;9.23;;
15936;SDS011;9163;48.818;8.976;2022-12-07T04:59:15;13.30;;;8.93;;
15936;SDS011;9163;48.818;8.976;2022-12-07T05:01:43;12.33;;;8.70;;
15936;SDS011;9163;48.818;8.976;2022-12-07T05:04:10;11.57;;;8.30;;
15936;SDS011;9163;48.818;8.976;2022-12-07T05:06:38;11.77;;;8.90;;
15936;SDS011;9163;48.818;8.976;2022-12-07T05:09:05;12.23;;;8.33;;
15936;SDS011;9163;48.818;8.976;2022-12-07T05:11:34;11.23;;;7.80;;
15936;SDS011;9163;48.818;8.976;2022-12-07T05:14:05;13.00;;;8.83;;
15936;SDS011;9163;48.818;8.976;2022-12-07T05:16:34;12.50;;;8.60;;
15936;SDS011;9163;48.818;8.976;2022-12-07T05:19:02;11.93;;;8.17;;
15936;SDS011;9163;48.818;8.976;2022-12-07T05:21:30;11.63;;;7.40;;
15936;SDS011;9163;48.818;8.976;2022-12-07T05:23:57;14.70;;;8.93;;
15936;SDS011;9163;48.818;8.976;2022-12-07T05:26:24;9.90;;;7.43;;
15936;SDS011;9163;48.818;8.976;2022-12-07T05:28:53;9.97;;;6.77;;
15936;SDS011;9163;48.818;8.976;2022-12-07T05:31:23;9.23;;;6.00;;
15936;SDS011;9163;48.818;8.976;2022-12-07T05:33:51;9.37;;;6.77;;
15936;SDS011;9163;48.818;8.976;2022-12-07T05:36:19;8.07;;;6.77;;
15936;SDS011;9163;48.818;8.976;2022-12-07T05:38:46;9.33;;;6.70;;
15936;SDS011;9163;48.818;8.976;2022-12-07T05:41:14;16.13;;;14.50;;
15936;SDS011;9163;48.818;8.976;2022-12-07T05:43:58;11.77;;;10.23;;
15936;SDS011;9163;48.818;8.976;2022-12-07T05:46:26;10.23;;;7.73;;
15936;SDS011;9163;48.818;8.976;2022-12-07T05:48:53;7.93;;;5.27;;
15936;SDS011;9163;48.818;8.976;2022-12-07T05:51:20;7.93;;;5.40;;
15936;SDS011;9163;48.818;8.976;2022-12-07T05:53:48;8.23;;;5.37;;
15936;SDS011;9163;48.818;8.976;2022-12-07T05:56:15;8.20;;;6.10;;
15936;SDS011;9163;48.818;8.976;2022-12-07T05:58:43;10.30;;;6.17;;
15936;SDS011;9163;48.818;8.976;2022-12-07T06:01:29;8.57;;;6.20;;
15936;SDS011;9163;48.818;8.976;2022-12-07T06:03:56;9.87;;;6.77;;
15936;SDS011;9163;48.818;8.976;2022-12-07T06:06:23;9.70;;;6.80;;
15936;SDS011;9163;48.818;8.976;2022-12-07T06:08:51;9.87;;;6.70;;
15936;SDS011;9163;48.818;8.976;2022-12-07T06:11:18;10.50;;;8.17;;
15936;SDS011;9163;48.818;8.976;2022-12-07T06:14:03;15.33;;;11.27;;
15936;SDS011;9163;48.818;8.976;2022-12-07T06:16:32;11.43;;;8.60;;
15936;SDS011;9163;48.818;8.976;2022-12-07T06:18:59;13.27;;;6.90;;
15936;SDS011;9163;48.818;8.976;2022-12-07T06:21:27;8.47;;;5.67;;
15936;SDS011;9163;48.818;8.976;2022-12-07T06:23:54;9.33;;;6.27;;
15936;SDS011;9163;48.818;8.976;2022-12-07T06:26:22;7.23;;;5.53;;
15936;SDS011;9163;48.818;8.976;2022-12-07T06:28:49;7.53;;;5.23;;
15936;SDS011;9163;48.818;8.976;2022-12-07T06:31:16;10.13;;;6.20;;
15936;SDS011;9163;48.818;8.976;2022-12-07T06:33:45;8.10;;;5.97;;
15936;SDS011;9163;48.818;8.976;2022-12-07T06:36:12;8.17;;;6.00;;
15936;SDS011;9163;48.818;8.976;2022-12-07T06:38:39;6.90;;;5.27;;
15936;SDS011;9163;48.818;8.976;2022-12-07T06:41:07;7.80;;;5.30;;
15936;SDS011;9163;48.818;8.976;2022-12-07T06:43:34;7.77;;;4.93;;
15936;SDS011;9163;48.818;8.976;2022-12-07T06:46:02;7.83;;;5.23;;
15936;SDS011;9163;48.818;8.976;2022-12-07T06:48:29;8.70;;;5.70;;
15936;SDS011;9163;48.818;8.976;2022-12-07T06:50:58;7.93;;;5.87;;
15936;SDS011;9163;48.818;8.976;2022-12-07T06:53:27;8.77;;;5.47;;
15936;SDS011;9163;48.818;8.976;2022-12-07T06:55:54;9.60;;;6.50;;
15936;SDS011;9163;48.818;8.976;2022-12-07T06:58:22;7.63;;;6.00;;
15936;SDS011;9163;48.818;8.976;2022-12-07T07:00:49;8.70;;;6.10;;
15936;SDS011;9163;48.818;8.976;2022-12-07T07:03:17;9.90;;;6.10;;
15936;SDS011;9163;48.818;8.976;2022-12-07T07:05:55;10.20;;;6.60;;
15936;SDS011;9163;48.818;8.976;2022-12-07T07:08:29;7.70;;;5.97;;
15936;SDS011;9163;48.818;8.976;2022-12-07T07:10:56;7.93;;;6.00;;
15936;SDS011;9163;48.818;8.976;2022-12-07T07:13:23;7.00;;;5.20;;
15936;SDS011;9163;48.818;8.976;2022-12-07T07:15:51;6.90;;;4.60;;
15936;SDS011;9163;48.818;8.976;2022-12-07T07:18:18;6.47;;;4.73;;
15936;SDS011;9163;48.818;8.976;2022-12-07T07:20:45;5.37;;;4.17;;
15936;SDS011;9163;48.818;8.976;2022-12-07T07:23:14;6.27;;;5.00;;
15936;SDS011;9163;48.818;8.976;2022-12-07T07:25:41;6.60;;;4.30;;
15936;SDS011;9163;48.818;8.976;2022-12-07T07:28:09;6.03;;;4.17;;
15936;SDS011;9163;48.818;8.976;2022-12-07T07:30:36;5.37;;;4.20;;
15936;SDS011;9163;48.818;8.976;2022-12-07T07:33:05;7.33;;;4.90;;
15936;SDS011;9163;48.818;8.976;2022-12-07T07:35:33;7.00;;;4.70;;
15936;SDS011;9163;48.818;8.976;2022-12-07T07:38:01;6.50;;;4.93;;
15936;SDS011;9163;48.818;8.976;2022-12-07T07:40:29;7.63;;;4.77;;
15936;SDS011;9163;48.818;8.976;2022-12-07T07:42:57;7.50;;;4.60;;
15936;SDS011;9163;48.818;8.976;2022-12-07T07:45:26;6.77;;;4.63;;
15936;SDS011;9163;48.818;8.976;2022-12-07T07:47:53;7.47;;;4.77;;
15936;SDS011;9163;48.818;8.976;2022-12-07T07:50:21;7.23;;;4.97;;
15936;SDS011;9163;48.818;8.976;2022-12-07T07:52:48;7.27;;;4.90;;
15936;SDS011;9163;48.818;8.976;2022-12-07T07:55:16;7.73;;;5.10;;
15936;SDS011;9163;48.818;8.976;2022-12-07T07:57:45;7.17;;;5.03;;
15936;SDS011;9163;48.818;8.976;2022-12-07T08:00:12;7.00;;;4.80;;
15936;SDS011;9163;48.818;8.976;2022-12-07T08:02:41;6.50;;;4.97;;
15936;SDS011;9163;48.818;8.976;2022-12-07T08:05:09;8.13;;;4.70;;
15936;SDS011;9163;48.818;8.976;2022-12-07T08:07:38;8.63;;;5.07;;
15936;SDS011;9163;48.818;8.976;2022-12-07T08:10:05;5.67;;;4.37;;
15936;SDS011;9163;48.818;8.976;2022-12-07T08:12:36;6.93;;;4.73;;
15936;SDS011;9163;48.818;8.976;2022-12-07T08:15:26;7.97;;;5.20;;
15936;SDS011;9163;48.818;8.976;2022-12-07T08:17:54;7.77;;;5.27;;
15936;SDS011;9163;48.818;8.976;2022-12-07T08:20:21;8.43;;;5.13;;
15936;SDS011;9163;48.818;8.976;2022-12-07T08:22:49;9.90;;;5.23;;
15936;SDS011;9163;48.818;8.976;2022-12-07T08:25:16;8.63;;;5.17;;
15936;SDS011;9163;48.818;8.976;2022-12-07T08:27:44;8.30;;;5.27;;
15936;SDS011;9163;48.818;8.976;2022-12-07T08:30:11;6.67;;;4.83;;
15936;SDS011;9163;48.818;8.976;2022-12-07T08:32:40;9.40;;;5.23;;
15936;SDS011;9163;48.818;8.976;2022-12-07T08:35:08;8.73;;;4.93;;
15936;SDS011;9163;48.818;8.976;2022-12-07T08:37:35;7.93;;;4.90;;
15936;SDS011;9163;48.818;8.976;2022-12-07T08:40:03;9.40;;;5.97;;
15936;SDS011;9163;48.818;8.976;2022-12-07T08:42:32;6.80;;;4.90;;
15936;SDS011;9163;48.818;8.976;2022-12-07T08:45:05;6.80;;;4.27;;
15936;SDS011;9163;48.818;8.976;2022-12-07T08:47:34;6.07;;;4.10;;
15936;SDS011;9163;48.818;8.976;2022-12-07T08:50:05;7.67;;;4.73;;
15936;SDS011;9163;48.818;8.976;2022-12-07T08:52:35;5.93;;;4.37;;
15936;SDS011;9163;48.818;8.976;2022-12-07T08:55:03;5.67;;;4.07;;
15936;SDS011;9163;48.818;8.976;2022-12-07T08:57:32;5.83;;;4.20;;
15936;SDS011;9163;48.818;8.976;2022-12-07T09:00:02;6.70;;;4.40;;
15936;SDS011;9163;48.818;8.976;2022-12-07T09:02:31;6.20;;;4.27;;
15936;SDS011;9163;48.818;8.976;2022-12-07T09:04:58;5.67;;;4.17;;
15936;SDS011;9163;48.818;8.976;2022-12-07T09:07:27;7.70;;;4.10;;
15936;SDS011;9163;48.818;8.976;2022-12-07T09:09:56;6.33;;;4.60;;
15936;SDS011;9163;48.818;8.976;2022-12-07T09:12:23;6.17;;;4.40;;
15936;SDS011;9163;48.818;8.976;2022-12-07T09:14:51;6.37;;;4.20;;
15936;SDS011;9163;48.818;8.976;2022-12-07T09:17:18;6.50;;;4.40;;
15936;SDS011;9163;48.818;8.976;2022-12-07T09:19:45;6.30;;;4.40;;
15936;SDS011;9163;48.818;8.976;2022-12-07T09:22:13;6.83;;;4.37;;
15936;SDS011;9163;48.818;8.976;2022-12-07T09:24:41;6.80;;;4.70;;
15936;SDS011;9163;48.818;8.976;2022-12-07T09:27:10;5.63;;;3.93;;
15936;SDS011;9163;48.818;8.976;2022-12-07T09:29:38;6.83;;;4.10;;
15936;SDS011;9163;48.818;8.976;2022-12-07T09:32:05;5.77;;;4.27;;
15936;SDS011;9163;48.818;8.976;2022-12-07T09:34:33;7.00;;;4.77;;
15936;SDS011;9163;48.818;8.976;2022-12-07T09:37:00;6.43;;;4.33;;
15936;SDS011;9163;48.818;8.976;2022-12-07T09:39:28;5.27;;;3.97;;
15936;SDS011;9163;48.818;8.976;2022-12-07T09:41:57;4.87;;;3.77;;
15936;SDS011;9163;48.818;8.976;2022-12-07T09:44:25;6.27;;;4.10;;
15936;SDS011;9163;48.818;8.976;2022-12-07T09:46:53;6.40;;;4.10;;
15936;SDS011;9163;48.818;8.976;2022-12-07T09:49:22;5.27;;;3.90;;
15936;SDS011;9163;48.818;8.976;2022-12-07T09:51:59;5.90;;;3.83;;
15936;SDS011;9163;48.818;8.976;2022-12-07T09:54:28;6.93;;;3.73;;
15936;SDS011;9163;48.818;8.976;2022-12-07T09:56:58;6.53;;;3.23;;
15936;SDS011;9163;48.818;8.976;2022-12-07T09:59:26;5.17;;;3.30;;
15936;SDS011;9163;48.818;8.976;2022-12-07T10:01:53;3.97;;;3.20;;
15936;SDS011;9163;48.818;8.976;2022-12-07T10:04:22;5.27;;;3.47;;
15936;SDS011;9163;48.818;8.976;2022-12-07T10:06:51;4.20;;;3.17;;
15936;SDS011;9163;48.818;8.976;2022-12-07T10:09:19;4.50;;;3.20;;
15936;SDS011;9163;48.818;8.976;2022-12-07T10:12:04;3.60;;;3.07;;
15936;SDS011;9163;48.818;8.976;2022-12-07T10:14:35;3.60;;;2.70;;
15936;SDS011;9163;48.818;8.976;2022-12-07T10:17:12;3.03;;;2.63;;
15936;SDS011;9163;48.818;8.976;2022-12-07T10:20:08;4.17;;;2.30;;
15936;SDS011;9163;48.818;8.976;2022-12-07T10:25:40;2.77;;;1.87;;
15936;SDS011;9163;48.818;8.976;2022-12-07T10:28:13;3.27;;;2.40;;
15936;SDS011;9163;48.818;8.976;2022-12-07T10:30:46;2.27;;;2.07;;
15936;SDS011;9163;48.818;8.976;2022-12-07T10:33:35;2.87;;;1.97;;
15936;SDS011;9163;48.818;8.976;2022-12-07T10:36:17;3.20;;;1.90;;
15936;SDS011;9163;48.818;8.976;2022-12-07T10:38:50;3.30;;;2.40;;
15936;SDS011;9163;48.818;8.976;2022-12-07T10:41:19;2.17;;;1.70;;
15936;SDS011;9163;48.818;8.976;2022-12-07T10:43:49;2.80;;;1.97;;
15936;SDS011;9163;48.818;8.976;2022-12-07T10:46:22;2.70;;;2.10;;
15936;SDS011;9163;48.818;8.976;2022-12-07T10:49:14;3.40;;;2.20;;
15936;SDS011;9163;48.818;8.976;2022-12-07T10:52:08;4.37;;;2.27;;
15936;SDS011;9163;48.818;8.976;2022-12-07T10:54:43;3.03;;;2.20;;
15936;SDS011;9163;48.818;8.976;2022-12-07T10:57:27;3.70;;;3.00;;
15936;SDS011;9163;48.818;8.976;2022-12-07T11:00:04;4.27;;;2.70;;
15936;SDS011;9163;48.818;8.976;2022-12-07T11:02:49;3.30;;;2.40;;
15936;SDS011;9163;48.818;8.976;2022-12-07T11:05:31;3.00;;;2.70;;
15936;SDS011;9163;48.818;8.976;2022-12-07T11:08:09;4.10;;;2.43;;
15936;SDS011;9163;48.818;8.976;2022-12-07T11:10:46;4.43;;;3.43;;
15936;SDS011;9163;48.818;8.976;2022-12-07T11:13:22;5.60;;;3.07;;
15936;SDS011;9163;48.818;8.976;2022-12-07T11:19:00;4.97;;;3.27;;
15936;SDS011;9163;48.818;8.976;2022-12-07T11:21:48;6.13;;;3.50;;
15936;SDS011;9163;48.818;8.976;2022-12-07T11:24:23;5.00;;;3.63;;
15936;SDS011;9163;48.818;8.976;2022-12-07T11:27:00;6.53;;;4.00;;
15936;SDS011;9163;48.818;8.976;2022-12-07T11:29:46;5.57;;;4.33;;
15936;SDS011;9163;48.818;8.976;2022-12-07T11:32:34;5.20;;;4.20;;
15936;SDS011;9163;48.818;8.976;2022-12-07T11:35:22;22.53;;;13.10;;
15936;SDS011;9163;48.818;8.976;2022-12-07T11:37:58;12.17;;;8.13;;
15936;SDS011;9163;48.818;8.976;2022-12-07T11:40:34;7.73;;;5.10;;
15936;SDS011;9163;48.818;8.976;2022-12-07T11:43:04;6.90;;;5.30;;
15936;SDS011;9163;48.818;8.976;2022-12-07T11:45:39;6.50;;;5.43;;
15936;SDS011;9163;48.818;8.976;2022-12-07T11:48:11;6.37;;;4.60;;
15936;SDS011;9163;48.818;8.976;2022-12-07T11:50:46;8.60;;;5.07;;
15936;SDS011;9163;48.818;8.976;2022-12-07T11:53:17;6.60;;;4.70;;
15936;SDS011;9163;48.818;8.976;2022-12-07T11:55:49;6.80;;;5.10;;
15936;SDS011;9163;48.818;8.976;2022-12-07T11:58:23;7.00;;;4.63;;
15936;SDS011;9163;48.818;8.976;2022-12-07T12:01:11;6.13;;;4.83;;
15936;SDS011;9163;48.818;8.976;2022-12-07T12:03:52;6.17;;;4.97;;
15936;SDS011;9163;48.818;8.976;2022-12-07T12:06:23;7.53;;;5.50;;
15936;SDS011;9163;48.818;8.976;2022-12-07T12:08:52;7.23;;;5.70;;
15936;SDS011;9163;48.818;8.976;2022-12-07T12:11:30;7.30;;;6.50;;
15936;SDS011;9163;48.818;8.976;2022-12-07T12:17:15;9.03;;;4.87;;
15936;SDS011;9163;48.818;8.976;2022-12-07T12:20:01;7.90;;;5.43;;
15936;SDS011;9163;48.818;8.976;2022-12-07T12:22:33;8.73;;;6.13;;
15936;SDS011;9163;48.818;8.976;2022-12-07T12:25:19;6.10;;;4.73;;
15936;SDS011;9163;48.818;8.976;2022-12-07T12:27:56;8.77;;;5.60;;
15936;SDS011;9163;48.818;8.976;2022-12-07T12:30:29;7.10;;;5.53;;
15936;SDS011;9163;48.818;8.976;2022-12-07T12:33:06;9.00;;;6.53;;
15936;SDS011;9163;48.818;8.976;2022-12-07T12:35:42;9.33;;;6.70;;
15936;SDS011;9163;48.818;8.976;2022-12-07T12:38:21;8.53;;;6.17;;
15936;SDS011;9163;48.818;8.976;2022-12-07T12:40:57;8.73;;;6.00;;
15936;SDS011;9163;48.818;8.976;2022-12-07T12:55:42;8.90;;;6.13;;
15936;SDS011;9163;48.818;8.976;2022-12-07T12:58:37;17.60;;;12.90;;
15936;SDS011;9163;48.818;8.976;2022-12-07T13:10:21;11.30;;;7.60;;
15936;SDS011;9163;48.818;8.976;2022-12-07T13:12:58;12.90;;;8.67;;
15936;SDS011;9163;48.818;8.976;2022-12-07T13:15:33;14.53;;;8.50;;
15936;SDS011;9163;48.818;8.976;2022-12-07T13:18:03;16.43;;;10.57;;
15936;SDS011;9163;48.818;8.976;2022-12-07T13:21:02;10.57;;;7.73;;
15936;SDS011;9163;48.818;8.976;2022-12-07T13:23:54;11.83;;;7.00;;
15936;SDS011;9163;48.818;8.976;2022-12-07T13:26:31;11.03;;;7.27;;
15936;SDS011;9163;48.818;8.976;2022-12-07T13:29:07;10.63;;;6.77;;
15936;SDS011;9163;48.818;8.976;2022-12-07T13:31:40;8.90;;;6.53;;
15936;SDS011;9163;48.818;8.976;2022-12-07T13:37:04;7.80;;;5.20;;
15936;SDS011;9163;48.818;8.976;2022-12-07T13:39:44;8.10;;;5.27;;
15936;SDS011;9163;48.818;8.976;2022-12-07T13:42:19;8.47;;;5.27;;
15936;SDS011;9163;48.818;8.976;2022-12-07T13:44:50;7.67;;;5.60;;
15936;SDS011;9163;48.818;8.976;2022-12-07T13:47:19;7.17;;;5.00;;
15936;SDS011;9163;48.818;8.976;2022-12-07T13:49:53;5.93;;;4.43;;
15936;SDS011;9163;48.818;8.976;2022-12-07T13:52:22;9.60;;;5.20;;
15936;SDS011;9163;48.818;8.976;2022-12-07T13:54:55;7.00;;;5.17;;
15936;SDS011;9163;48.818;8.976;2022-12-07T13:57:26;10.30;;;6.13;;
15936;SDS011;9163;48.818;8.976;2022-12-07T13:59:55;7.33;;;4.70;;
15936;SDS011;9163;48.818;8.976;2022-12-07T14:02:25;7.43;;;5.17;;
15936;SDS011;9163;48.818;8.976;2022-12-07T14:05:06;6.73;;;4.90;;
15936;SDS011;9163;48.818;8.976;2022-12-07T14:07:34;6.37;;;4.60;;
15936;SDS011;9163;48.818;8.976;2022-12-07T14:10:03;6.27;;;4.70;;
15936;SDS011;9163;48.818;8.976;2022-12-07T14:12:35;6.90;;;4.90;;
15936;SDS011;9163;48.818;8.976;2022-12-07T14:15:03;6.40;;;4.80;;
15936;SDS011;9163;48.818;8.976;2022-12-07T14:17:31;5.90;;;4.40;;
15936;SDS011;9163;48.818;8.976;2022-12-07T14:19:59;6.20;;;4.50;;
15936;SDS011;9163;48.818;8.976;2022-12-07T14:22:28;7.10;;;4.50;;
15936;SDS011;9163;48.818;8.976;2022-12-07T14:25:01;7.90;;;4.83;;
15936;SDS011;9163;48.818;8.976;2022-12-07T14:27:49;7.10;;;4.43;;
15936;SDS011;9163;48.818;8.976;2022-12-07T14:30:22;6.83;;;4.00;;
15936;SDS011;9163;48.818;8.976;2022-12-07T14:32:52;13.43;;;8.40;;
15936;SDS011;9163;48.818;8.976;2022-12-07T14:35:21;6.20;;;4.20;;
15936;SDS011;9163;48.818;8.976;2022-12-07T14:37:49;5.37;;;4.20;;
15936;SDS011;9163;48.818;8.976;2022-12-07T14:40:17;6.07;;;4.53;;
15936;SDS011;9163;48.818;8.976;2022-12-07T14:42:50;5.73;;;4.60;;
15936;SDS011;9163;48.818;8.976;2022-12-07T14:45:21;5.77;;;4.20;;
15936;SDS011;9163;48.818;8.976;2022-12-07T14:47:48;6.30;;;4.63;;
15936;SDS011;9163;48.818;8.976;2022-12-07T14:50:17;5.20;;;4.07;;
15936;SDS011;9163;48.818;8.976;2022-12-07T14:52:46;6.37;;;4.23;;
15936;SDS011;9163;48.818;8.976;2022-12-07T14:55:17;7.67;;;4.60;;
15936;SDS011;9163;48.818;8.976;2022-12-07T14:57:51;5.87;;;4.10;;
15936;SDS011;9163;48.818;8.976;2022-12-07T15:00:20;5.37;;;4.37;;
15936;SDS011;9163;48.818;8.976;2022-12-07T15:02:48;7.37;;;4.80;;
15936;SDS011;9163;48.818;8.976;2022-12-07T15:05:16;7.80;;;5.20;;
15936;SDS011;9163;48.818;8.976;2022-12-07T15:07:45;7.90;;;5.40;;
15936;SDS011;9163;48.818;8.976;2022-12-07T15:10:14;7.30;;;5.20;;
15936;SDS011;9163;48.818;8.976;2022-12-07T15:12:44;8.00;;;5.87;;
15936;SDS011;9163;48.818;8.976;2022-12-07T15:15:13;9.33;;;6.77;;
15936;SDS011;9163;48.818;8.976;2022-12-07T15:17:42;11.10;;;7.47;;
15936;SDS011;9163;48.818;8.976;2022-12-07T15:20:11;12.80;;;8.03;;
15936;SDS011;9163;48.818;8.976;2022-12-07T15:22:40;11.20;;;8.10;;
15936;SDS011;9163;48.818;8.976;2022-12-07T15:25:08;12.57;;;8.23;;
15936;SDS011;9163;48.818;8.976;2022-12-07T15:27:38;12.83;;;8.20;;
15936;SDS011;9163;48.818;8.976;2022-12-07T15:30:06;11.17;;;7.90;;
15936;SDS011;9163;48.818;8.976;2022-12-07T15:32:35;12.90;;;8.00;;
15936;SDS011;9163;48.818;8.976;2022-12-07T15:35:03;12.60;;;7.93;;
15936;SDS011;9163;48.818;8.976;2022-12-07T15:37:30;14.27;;;9.07;;
15936;SDS011;9163;48.818;8.976;2022-12-07T15:39:58;14.40;;;8.97;;
15936;SDS011;9163;48.818;8.976;2022-12-07T15:42:26;15.33;;;10.20;;
15936;SDS011;9163;48.818;8.976;2022-12-07T15:44:53;13.80;;;9.53;;
15936;SDS011;9163;48.818;8.976;2022-12-07T15:47:31;16.13;;;10.43;;
15936;SDS011;9163;48.818;8.976;2022-12-07T15:50:02;15.93;;;9.73;;